sensor_id;sensor_type;location;lat;lon;timestamp;temperature;humidity
34099;DHT22;20374;49.474;10.944;2023-07-31T00:02:17;16.20;99.90
34099;DHT22;20374;49.474;10.944;2023-07-31T00:04:43;16.20;99.90
34099;DHT22;20374;49.474;10.944;2023-07-31T00:07:08;16.20;99.90
34099;DHT22;20374;49.474;10.944;2023-07-31T00:09:34;16.20;99.90
34099;DHT22;20374;49.474;10.944;2023-07-31T00:12:00;16.20;99.90
34099;DHT22;20374;49.474;10.944;2023-07-31T00:14:26;16.20;99.90
34099;DHT22;20374;49.474;10.944;2023-07-31T00:16:52;16.20;99.90
34099;DHT22;20374;49.474;10.944;2023-07-31T00:19:18;16.20;99.90
34099;DHT22;20374;49.474;10.944;2023-07-31T00:21:44;16.20;99.90
34099;DHT22;20374;49.474;10.944;2023-07-31T00:24:10;16.20;99.90
34099;DHT22;20374;49.474;10.944;2023-07-31T00:26:36;16.20;99.90
34099;DHT22;20374;49.474;10.944;2023-07-31T00:29:02;16.20;99.90
34099;DHT22;20374;49.474;10.944;2023-07-31T00:31:28;16.20;99.90
34099;DHT22;20374;49.474;10.944;2023-07-31T00:33:54;16.20;99.90
34099;DHT22;20374;49.474;10.944;2023-07-31T00:36:20;16.10;99.90
34099;DHT22;20374;49.474;10.944;2023-07-31T00:38:46;16.10;99.90
34099;DHT22;20374;49.474;10.944;2023-07-31T00:41:12;16.20;99.90
34099;DHT22;20374;49.474;10.944;2023-07-31T00:43:38;16.10;99.90
34099;DHT22;20374;49.474;10.944;2023-07-31T00:46:04;16.10;99.90
34099;DHT22;20374;49.474;10.944;2023-07-31T00:48:30;16.10;99.90
34099;DHT22;20374;49.474;10.944;2023-07-31T00:50:56;16.10;99.90
34099;DHT22;20374;49.474;10.944;2023-07-31T00:53:22;16.20;99.90
34099;DHT22;20374;49.474;10.944;2023-07-31T00:55:51;16.20;99.90
34099;DHT22;20374;49.474;10.944;2023-07-31T00:58:17;16.20;99.90
34099;DHT22;20374;49.474;10.944;2023-07-31T01:00:43;16.20;99.90
34099;DHT22;20374;49.474;10.944;2023-07-31T01:03:10;16.20;99.90
34099;DHT22;20374;49.474;10.944;2023-07-31T01:06:36;16.20;99.90
34099;DHT22;20374;49.474;10.944;2023-07-31T01:11:43;16.20;99.90
34099;DHT22;20374;49.474;10.944;2023-07-31T01:14:12;16.20;99.90
34099;DHT22;20374;49.474;10.944;2023-07-31T01:16:38;16.30;99.90
34099;DHT22;20374;49.474;10.944;2023-07-31T01:19:05;16.30;99.90
34099;DHT22;20374;49.474;10.944;2023-07-31T01:27:14;16.30;99.90
34099;DHT22;20374;49.474;10.944;2023-07-31T01:32:17;16.30;99.90
34099;DHT22;20374;49.474;10.944;2023-07-31T01:34:44;16.30;99.90
34099;DHT22;20374;49.474;10.944;2023-07-31T01:37:10;16.30;99.90
34099;DHT22;20374;49.474;10.944;2023-07-31T01:39:36;16.30;99.90
34099;DHT22;20374;49.474;10.944;2023-07-31T01:42:03;16.30;99.90
34099;DHT22;20374;49.474;10.944;2023-07-31T01:44:29;16.30;99.90
34099;DHT22;20374;49.474;10.944;2023-07-31T01:46:55;16.30;99.90
34099;DHT22;20374;49.474;10.944;2023-07-31T01:49:21;16.40;99.90
34099;DHT22;20374;49.474;10.944;2023-07-31T01:51:46;16.40;99.90
34099;DHT22;20374;49.474;10.944;2023-07-31T01:54:13;16.40;99.90
34099;DHT22;20374;49.474;10.944;2023-07-31T01:56:38;16.30;99.90
34099;DHT22;20374;49.474;10.944;2023-07-31T01:59:04;16.40;99.90
34099;DHT22;20374;49.474;10.944;2023-07-31T02:01:30;16.30;99.90
34099;DHT22;20374;49.474;10.944;2023-07-31T02:03:56;16.40;99.90
34099;DHT22;20374;49.474;10.944;2023-07-31T02:06:23;16.40;99.90
34099;DHT22;20374;49.474;10.944;2023-07-31T02:08:49;16.40;99.90
34099;DHT22;20374;49.474;10.944;2023-07-31T02:11:15;16.40;99.90
34099;DHT22;20374;49.474;10.944;2023-07-31T02:13:41;16.40;99.90
34099;DHT22;20374;49.474;10.944;2023-07-31T02:16:07;16.40;99.90
34099;DHT22;20374;49.474;10.944;2023-07-31T02:18:33;16.40;99.90
34099;DHT22;20374;49.474;10.944;2023-07-31T02:20:58;16.30;99.90
34099;DHT22;20374;49.474;10.944;2023-07-31T02:23:25;16.30;99.90
34099;DHT22;20374;49.474;10.944;2023-07-31T02:25:51;16.30;99.90
34099;DHT22;20374;49.474;10.944;2023-07-31T02:28:17;16.30;99.90
34099;DHT22;20374;49.474;10.944;2023-07-31T02:30:45;16.30;99.90
34099;DHT22;20374;49.474;10.944;2023-07-31T02:33:14;16.30;99.90
34099;DHT22;20374;49.474;10.944;2023-07-31T02:35:41;16.30;99.90
34099;DHT22;20374;49.474;10.944;2023-07-31T02:38:07;16.30;99.90
34099;DHT22;20374;49.474;10.944;2023-07-31T02:40:33;16.20;99.90
34099;DHT22;20374;49.474;10.944;2023-07-31T02:42:59;16.20;99.90
34099;DHT22;20374;49.474;10.944;2023-07-31T02:45:25;16.20;99.90
34099;DHT22;20374;49.474;10.944;2023-07-31T02:47:52;16.30;99.90
34099;DHT22;20374;49.474;10.944;2023-07-31T02:50:18;16.20;99.90
34099;DHT22;20374;49.474;10.944;2023-07-31T02:52:43;16.20;99.90
34099;DHT22;20374;49.474;10.944;2023-07-31T02:55:09;16.20;99.90
34099;DHT22;20374;49.474;10.944;2023-07-31T02:57:35;16.20;99.90
34099;DHT22;20374;49.474;10.944;2023-07-31T03:00:01;16.20;99.90
34099;DHT22;20374;49.474;10.944;2023-07-31T03:02:28;16.20;99.90
34099;DHT22;20374;49.474;10.944;2023-07-31T03:04:54;16.20;99.90
34099;DHT22;20374;49.474;10.944;2023-07-31T03:07:20;16.20;99.90
34099;DHT22;20374;49.474;10.944;2023-07-31T03:09:46;16.20;99.90
34099;DHT22;20374;49.474;10.944;2023-07-31T03:12:11;16.30;99.90
34099;DHT22;20374;49.474;10.944;2023-07-31T03:14:38;16.30;99.90
34099;DHT22;20374;49.474;10.944;2023-07-31T03:17:04;16.20;99.90
34099;DHT22;20374;49.474;10.944;2023-07-31T03:19:33;16.20;99.90
34099;DHT22;20374;49.474;10.944;2023-07-31T03:21:59;16.20;99.90
34099;DHT22;20374;49.474;10.944;2023-07-31T03:24:26;16.20;99.90
34099;DHT22;20374;49.474;10.944;2023-07-31T03:26:52;16.20;99.90
34099;DHT22;20374;49.474;10.944;2023-07-31T03:29:18;16.20;99.90
34099;DHT22;20374;49.474;10.944;2023-07-31T03:31:43;16.20;99.90
34099;DHT22;20374;49.474;10.944;2023-07-31T03:34:09;16.20;99.90
34099;DHT22;20374;49.474;10.944;2023-07-31T03:36:36;16.20;99.90
34099;DHT22;20374;49.474;10.944;2023-07-31T03:39:02;16.00;99.90
34099;DHT22;20374;49.474;10.944;2023-07-31T03:41:30;16.00;99.90
34099;DHT22;20374;49.474;10.944;2023-07-31T03:43:56;16.00;99.90
34099;DHT22;20374;49.474;10.944;2023-07-31T03:46:23;16.00;99.90
34099;DHT22;20374;49.474;10.944;2023-07-31T03:48:49;16.00;99.90
34099;DHT22;20374;49.474;10.944;2023-07-31T03:51:18;15.90;99.90
34099;DHT22;20374;49.474;10.944;2023-07-31T03:53:44;15.90;99.90
34099;DHT22;20374;49.474;10.944;2023-07-31T03:56:10;15.90;99.90
34099;DHT22;20374;49.474;10.944;2023-07-31T03:58:36;15.80;99.90
34099;DHT22;20374;49.474;10.944;2023-07-31T04:01:03;15.80;99.90
34099;DHT22;20374;49.474;10.944;2023-07-31T04:03:29;15.70;99.90
34099;DHT22;20374;49.474;10.944;2023-07-31T04:05:55;15.70;99.90
34099;DHT22;20374;49.474;10.944;2023-07-31T04:08:22;15.70;99.90
34099;DHT22;20374;49.474;10.944;2023-07-31T04:10:48;15.80;99.90
34099;DHT22;20374;49.474;10.944;2023-07-31T04:13:14;15.70;99.90
34099;DHT22;20374;49.474;10.944;2023-07-31T04:15:41;15.70;99.90
34099;DHT22;20374;49.474;10.944;2023-07-31T04:18:07;15.70;99.90
34099;DHT22;20374;49.474;10.944;2023-07-31T04:20:32;15.70;99.90
34099;DHT22;20374;49.474;10.944;2023-07-31T04:22:58;15.70;99.90
34099;DHT22;20374;49.474;10.944;2023-07-31T04:25:24;15.80;99.90
34099;DHT22;20374;49.474;10.944;2023-07-31T04:27:50;15.90;99.90
34099;DHT22;20374;49.474;10.944;2023-07-31T04:30:16;15.70;99.90
34099;DHT22;20374;49.474;10.944;2023-07-31T04:32:42;15.80;99.90
34099;DHT22;20374;49.474;10.944;2023-07-31T04:35:08;15.70;99.90
34099;DHT22;20374;49.474;10.944;2023-07-31T04:37:34;15.70;99.90
34099;DHT22;20374;49.474;10.944;2023-07-31T04:40:00;15.70;99.90
34099;DHT22;20374;49.474;10.944;2023-07-31T04:42:26;15.70;99.90
34099;DHT22;20374;49.474;10.944;2023-07-31T04:44:52;15.70;99.90
34099;DHT22;20374;49.474;10.944;2023-07-31T04:47:19;15.80;99.90
34099;DHT22;20374;49.474;10.944;2023-07-31T04:49:45;15.80;99.90
34099;DHT22;20374;49.474;10.944;2023-07-31T04:52:11;15.80;99.90
34099;DHT22;20374;49.474;10.944;2023-07-31T04:54:36;15.80;99.90
34099;DHT22;20374;49.474;10.944;2023-07-31T04:57:02;15.80;99.90
34099;DHT22;20374;49.474;10.944;2023-07-31T04:59:28;15.80;99.90
34099;DHT22;20374;49.474;10.944;2023-07-31T05:01:55;15.90;99.90
34099;DHT22;20374;49.474;10.944;2023-07-31T05:04:21;15.80;99.90
34099;DHT22;20374;49.474;10.944;2023-07-31T05:06:47;15.80;99.90
34099;DHT22;20374;49.474;10.944;2023-07-31T05:09:12;15.90;99.90
34099;DHT22;20374;49.474;10.944;2023-07-31T05:11:38;15.90;99.90
34099;DHT22;20374;49.474;10.944;2023-07-31T05:14:06;15.90;99.90
34099;DHT22;20374;49.474;10.944;2023-07-31T05:16:33;16.00;99.90
34099;DHT22;20374;49.474;10.944;2023-07-31T05:18:59;15.90;99.90
34099;DHT22;20374;49.474;10.944;2023-07-31T05:21:27;16.00;99.90
34099;DHT22;20374;49.474;10.944;2023-07-31T05:23:54;16.10;99.90
34099;DHT22;20374;49.474;10.944;2023-07-31T05:26:19;16.10;99.90
34099;DHT22;20374;49.474;10.944;2023-07-31T05:28:45;16.20;99.90
34099;DHT22;20374;49.474;10.944;2023-07-31T05:31:11;16.20;99.90
34099;DHT22;20374;49.474;10.944;2023-07-31T05:33:37;16.30;99.90
34099;DHT22;20374;49.474;10.944;2023-07-31T05:36:03;16.30;99.90
34099;DHT22;20374;49.474;10.944;2023-07-31T05:38:29;16.40;99.90
34099;DHT22;20374;49.474;10.944;2023-07-31T05:40:55;16.40;99.90
34099;DHT22;20374;49.474;10.944;2023-07-31T05:43:21;16.40;99.90
34099;DHT22;20374;49.474;10.944;2023-07-31T05:45:47;16.50;99.90
34099;DHT22;20374;49.474;10.944;2023-07-31T05:48:13;16.60;99.90
34099;DHT22;20374;49.474;10.944;2023-07-31T05:50:39;16.60;99.90
34099;DHT22;20374;49.474;10.944;2023-07-31T05:53:06;16.60;99.90
34099;DHT22;20374;49.474;10.944;2023-07-31T05:55:32;16.70;99.90
34099;DHT22;20374;49.474;10.944;2023-07-31T05:57:58;16.80;99.90
34099;DHT22;20374;49.474;10.944;2023-07-31T06:00:24;16.90;99.90
34099;DHT22;20374;49.474;10.944;2023-07-31T06:02:50;16.90;99.90
34099;DHT22;20374;49.474;10.944;2023-07-31T06:05:16;17.00;99.90
34099;DHT22;20374;49.474;10.944;2023-07-31T06:07:43;17.00;99.90
34099;DHT22;20374;49.474;10.944;2023-07-31T06:10:09;17.00;99.90
34099;DHT22;20374;49.474;10.944;2023-07-31T06:12:35;17.10;99.90
34099;DHT22;20374;49.474;10.944;2023-07-31T06:15:02;17.20;99.90
34099;DHT22;20374;49.474;10.944;2023-07-31T06:17:29;17.30;99.90
34099;DHT22;20374;49.474;10.944;2023-07-31T06:19:56;17.40;99.90
34099;DHT22;20374;49.474;10.944;2023-07-31T06:22:22;17.50;99.90
34099;DHT22;20374;49.474;10.944;2023-07-31T06:24:48;17.50;99.90
34099;DHT22;20374;49.474;10.944;2023-07-31T06:27:14;17.60;99.90
34099;DHT22;20374;49.474;10.944;2023-07-31T06:29:40;17.80;99.90
34099;DHT22;20374;49.474;10.944;2023-07-31T06:32:07;17.80;99.90
34099;DHT22;20374;49.474;10.944;2023-07-31T06:34:33;17.80;99.90
34099;DHT22;20374;49.474;10.944;2023-07-31T06:36:58;17.80;99.90
34099;DHT22;20374;49.474;10.944;2023-07-31T06:39:24;17.80;99.90
34099;DHT22;20374;49.474;10.944;2023-07-31T06:41:50;17.80;99.90
34099;DHT22;20374;49.474;10.944;2023-07-31T06:44:16;17.80;99.90
34099;DHT22;20374;49.474;10.944;2023-07-31T06:46:42;17.80;99.90
34099;DHT22;20374;49.474;10.944;2023-07-31T06:49:08;17.90;99.90
34099;DHT22;20374;49.474;10.944;2023-07-31T06:51:34;18.00;99.90
34099;DHT22;20374;49.474;10.944;2023-07-31T06:54:01;18.20;99.90
34099;DHT22;20374;49.474;10.944;2023-07-31T06:56:27;18.20;99.90
34099;DHT22;20374;49.474;10.944;2023-07-31T06:58:53;18.30;99.90
34099;DHT22;20374;49.474;10.944;2023-07-31T07:01:19;18.40;99.90
34099;DHT22;20374;49.474;10.944;2023-07-31T07:03:45;18.50;99.90
34099;DHT22;20374;49.474;10.944;2023-07-31T07:06:10;18.70;99.90
34099;DHT22;20374;49.474;10.944;2023-07-31T07:08:36;18.80;99.90
34099;DHT22;20374;49.474;10.944;2023-07-31T07:11:02;18.80;99.90
34099;DHT22;20374;49.474;10.944;2023-07-31T07:13:28;18.80;99.90
34099;DHT22;20374;49.474;10.944;2023-07-31T07:15:54;19.00;99.90
34099;DHT22;20374;49.474;10.944;2023-07-31T07:18:20;19.00;99.90
34099;DHT22;20374;49.474;10.944;2023-07-31T07:20:50;19.00;99.90
34099;DHT22;20374;49.474;10.944;2023-07-31T07:23:16;19.00;99.90
34099;DHT22;20374;49.474;10.944;2023-07-31T07:25:46;19.10;99.90
34099;DHT22;20374;49.474;10.944;2023-07-31T07:28:13;19.00;99.90
34099;DHT22;20374;49.474;10.944;2023-07-31T07:30:39;19.00;99.90
34099;DHT22;20374;49.474;10.944;2023-07-31T07:33:05;19.00;99.90
34099;DHT22;20374;49.474;10.944;2023-07-31T07:35:35;18.90;99.90
34099;DHT22;20374;49.474;10.944;2023-07-31T07:38:02;18.90;99.90
34099;DHT22;20374;49.474;10.944;2023-07-31T07:40:28;18.90;99.90
34099;DHT22;20374;49.474;10.944;2023-07-31T07:42:54;18.90;99.90
34099;DHT22;20374;49.474;10.944;2023-07-31T07:45:20;18.90;99.90
34099;DHT22;20374;49.474;10.944;2023-07-31T07:47:46;18.90;99.90
34099;DHT22;20374;49.474;10.944;2023-07-31T07:50:12;19.00;99.90
34099;DHT22;20374;49.474;10.944;2023-07-31T07:52:37;18.90;99.90
34099;DHT22;20374;49.474;10.944;2023-07-31T07:55:04;18.90;99.90
34099;DHT22;20374;49.474;10.944;2023-07-31T07:57:30;18.90;99.90
34099;DHT22;20374;49.474;10.944;2023-07-31T07:59:56;19.00;99.90
34099;DHT22;20374;49.474;10.944;2023-07-31T08:02:22;19.00;99.90
34099;DHT22;20374;49.474;10.944;2023-07-31T08:04:48;19.10;99.90
34099;DHT22;20374;49.474;10.944;2023-07-31T08:07:14;19.10;99.90
34099;DHT22;20374;49.474;10.944;2023-07-31T08:09:40;19.20;99.90
34099;DHT22;20374;49.474;10.944;2023-07-31T08:12:07;19.20;99.90
34099;DHT22;20374;49.474;10.944;2023-07-31T08:14:33;19.60;99.90
34099;DHT22;20374;49.474;10.944;2023-07-31T08:16:59;20.00;99.50
34099;DHT22;20374;49.474;10.944;2023-07-31T08:19:24;20.10;99.40
34099;DHT22;20374;49.474;10.944;2023-07-31T08:21:50;20.00;99.50
34099;DHT22;20374;49.474;10.944;2023-07-31T08:24:16;20.10;99.50
34099;DHT22;20374;49.474;10.944;2023-07-31T08:26:42;20.30;99.60
34099;DHT22;20374;49.474;10.944;2023-07-31T08:29:08;20.50;99.80
34099;DHT22;20374;49.474;10.944;2023-07-31T08:31:34;20.80;99.80
34099;DHT22;20374;49.474;10.944;2023-07-31T08:34:00;20.90;99.70
34099;DHT22;20374;49.474;10.944;2023-07-31T08:36:26;21.00;98.10
34099;DHT22;20374;49.474;10.944;2023-07-31T08:38:52;20.70;98.30
34099;DHT22;20374;49.474;10.944;2023-07-31T08:41:18;20.60;97.90
34099;DHT22;20374;49.474;10.944;2023-07-31T08:43:49;20.60;98.20
34099;DHT22;20374;49.474;10.944;2023-07-31T08:46:15;20.50;97.90
34099;DHT22;20374;49.474;10.944;2023-07-31T08:48:44;20.80;98.40
34099;DHT22;20374;49.474;10.944;2023-07-31T08:51:14;21.00;97.90
34099;DHT22;20374;49.474;10.944;2023-07-31T08:53:40;21.10;98.30
34099;DHT22;20374;49.474;10.944;2023-07-31T08:56:06;21.00;97.80
34099;DHT22;20374;49.474;10.944;2023-07-31T08:58:36;20.90;98.10
34099;DHT22;20374;49.474;10.944;2023-07-31T09:01:04;21.00;98.60
34099;DHT22;20374;49.474;10.944;2023-07-31T09:03:34;21.20;98.70
34099;DHT22;20374;49.474;10.944;2023-07-31T09:06:02;21.40;99.00
34099;DHT22;20374;49.474;10.944;2023-07-31T09:08:31;21.60;98.50
34099;DHT22;20374;49.474;10.944;2023-07-31T09:11:01;21.90;98.00
34099;DHT22;20374;49.474;10.944;2023-07-31T09:13:32;22.00;97.50
34099;DHT22;20374;49.474;10.944;2023-07-31T09:15:59;22.40;97.10
34099;DHT22;20374;49.474;10.944;2023-07-31T09:18:25;22.70;96.90
34099;DHT22;20374;49.474;10.944;2023-07-31T09:21:04;23.20;97.60
34099;DHT22;20374;49.474;10.944;2023-07-31T09:23:44;23.80;95.10
34099;DHT22;20374;49.474;10.944;2023-07-31T09:26:11;23.60;93.20
34099;DHT22;20374;49.474;10.944;2023-07-31T09:28:39;23.10;94.30
34099;DHT22;20374;49.474;10.944;2023-07-31T09:31:05;23.00;94.00
34099;DHT22;20374;49.474;10.944;2023-07-31T09:33:31;23.10;93.80
34099;DHT22;20374;49.474;10.944;2023-07-31T09:35:58;23.20;93.50
34099;DHT22;20374;49.474;10.944;2023-07-31T09:38:26;23.80;93.10
34099;DHT22;20374;49.474;10.944;2023-07-31T09:40:52;24.00;92.40
34099;DHT22;20374;49.474;10.944;2023-07-31T09:43:19;24.20;93.00
34099;DHT22;20374;49.474;10.944;2023-07-31T09:45:46;23.90;92.20
34099;DHT22;20374;49.474;10.944;2023-07-31T09:48:14;23.30;92.20
34099;DHT22;20374;49.474;10.944;2023-07-31T09:50:44;22.80;93.20
34099;DHT22;20374;49.474;10.944;2023-07-31T09:53:11;22.40;94.50
34099;DHT22;20374;49.474;10.944;2023-07-31T09:55:38;22.40;93.80
34099;DHT22;20374;49.474;10.944;2023-07-31T09:58:08;22.10;94.10
34099;DHT22;20374;49.474;10.944;2023-07-31T10:00:35;21.80;94.30
34099;DHT22;20374;49.474;10.944;2023-07-31T10:03:11;21.80;95.00
34099;DHT22;20374;49.474;10.944;2023-07-31T10:05:40;21.70;95.70
34099;DHT22;20374;49.474;10.944;2023-07-31T10:08:09;21.80;95.40
34099;DHT22;20374;49.474;10.944;2023-07-31T10:10:41;21.80;95.80
34099;DHT22;20374;49.474;10.944;2023-07-31T10:13:08;22.10;95.80
34099;DHT22;20374;49.474;10.944;2023-07-31T10:15:35;22.20;94.20
34099;DHT22;20374;49.474;10.944;2023-07-31T10:18:01;22.10;94.10
34099;DHT22;20374;49.474;10.944;2023-07-31T10:20:29;21.90;94.50
34099;DHT22;20374;49.474;10.944;2023-07-31T10:22:56;22.10;94.70
34099;DHT22;20374;49.474;10.944;2023-07-31T10:25:22;23.20;94.20
34099;DHT22;20374;49.474;10.944;2023-07-31T10:27:49;24.10;92.70
34099;DHT22;20374;49.474;10.944;2023-07-31T10:30:17;24.80;91.60
34099;DHT22;20374;49.474;10.944;2023-07-31T10:32:45;24.90;90.30
34099;DHT22;20374;49.474;10.944;2023-07-31T10:35:11;24.60;90.60
34099;DHT22;20374;49.474;10.944;2023-07-31T10:37:42;24.50;90.60
34099;DHT22;20374;49.474;10.944;2023-07-31T10:40:25;24.70;91.30
34099;DHT22;20374;49.474;10.944;2023-07-31T10:42:55;25.50;91.10
34099;DHT22;20374;49.474;10.944;2023-07-31T10:45:41;25.70;89.70
34099;DHT22;20374;49.474;10.944;2023-07-31T10:48:15;25.80;85.40
34099;DHT22;20374;49.474;10.944;2023-07-31T10:53:30;24.90;88.50
34099;DHT22;20374;49.474;10.944;2023-07-31T10:56:03;24.30;88.90
34099;DHT22;20374;49.474;10.944;2023-07-31T10:58:30;23.90;90.50
34099;DHT22;20374;49.474;10.944;2023-07-31T11:01:06;23.50;90.90
34099;DHT22;20374;49.474;10.944;2023-07-31T11:03:48;23.30;91.50
34099;DHT22;20374;49.474;10.944;2023-07-31T11:06:16;23.10;92.10
34099;DHT22;20374;49.474;10.944;2023-07-31T11:08:45;23.20;92.00
34099;DHT22;20374;49.474;10.944;2023-07-31T11:11:13;23.30;91.30
34099;DHT22;20374;49.474;10.944;2023-07-31T11:13:49;23.10;91.10
34099;DHT22;20374;49.474;10.944;2023-07-31T11:16:17;22.70;91.80
34099;DHT22;20374;49.474;10.944;2023-07-31T11:18:45;22.50;91.30
34099;DHT22;20374;49.474;10.944;2023-07-31T11:21:15;22.20;92.10
34099;DHT22;20374;49.474;10.944;2023-07-31T11:23:45;22.00;92.10
34099;DHT22;20374;49.474;10.944;2023-07-31T11:26:11;22.00;92.40
34099;DHT22;20374;49.474;10.944;2023-07-31T11:28:38;22.00;92.20
34099;DHT22;20374;49.474;10.944;2023-07-31T11:31:04;22.00;92.20
34099;DHT22;20374;49.474;10.944;2023-07-31T11:33:30;22.00;93.00
34099;DHT22;20374;49.474;10.944;2023-07-31T11:35:56;22.00;92.60
34099;DHT22;20374;49.474;10.944;2023-07-31T11:38:27;22.00;92.20
34099;DHT22;20374;49.474;10.944;2023-07-31T11:40:58;21.80;92.40
34099;DHT22;20374;49.474;10.944;2023-07-31T11:43:24;21.70;93.00
34099;DHT22;20374;49.474;10.944;2023-07-31T11:45:57;21.70;93.00
34099;DHT22;20374;49.474;10.944;2023-07-31T11:48:31;21.80;93.50
34099;DHT22;20374;49.474;10.944;2023-07-31T11:51:01;21.80;93.40
34099;DHT22;20374;49.474;10.944;2023-07-31T11:53:31;21.90;93.50
34099;DHT22;20374;49.474;10.944;2023-07-31T11:55:59;22.10;93.30
34099;DHT22;20374;49.474;10.944;2023-07-31T11:58:26;22.30;92.90
34099;DHT22;20374;49.474;10.944;2023-07-31T12:00:53;22.50;93.40
34099;DHT22;20374;49.474;10.944;2023-07-31T12:03:19;22.60;92.50
34099;DHT22;20374;49.474;10.944;2023-07-31T12:05:47;22.70;92.00
34099;DHT22;20374;49.474;10.944;2023-07-31T12:08:14;22.70;92.20
34099;DHT22;20374;49.474;10.944;2023-07-31T12:10:41;22.80;92.00
34099;DHT22;20374;49.474;10.944;2023-07-31T12:13:10;22.70;92.40
34099;DHT22;20374;49.474;10.944;2023-07-31T12:15:43;22.60;91.80
34099;DHT22;20374;49.474;10.944;2023-07-31T12:18:10;22.50;92.30
34099;DHT22;20374;49.474;10.944;2023-07-31T12:20:41;22.40;92.20
34099;DHT22;20374;49.474;10.944;2023-07-31T12:23:07;22.30;92.10
34099;DHT22;20374;49.474;10.944;2023-07-31T12:25:38;22.30;92.10
34099;DHT22;20374;49.474;10.944;2023-07-31T12:28:05;22.50;91.70
34099;DHT22;20374;49.474;10.944;2023-07-31T12:30:33;22.80;92.20
34099;DHT22;20374;49.474;10.944;2023-07-31T12:33:14;23.00;90.90
34099;DHT22;20374;49.474;10.944;2023-07-31T12:35:45;23.00;91.70
34099;DHT22;20374;49.474;10.944;2023-07-31T12:38:13;22.90;91.90
34099;DHT22;20374;49.474;10.944;2023-07-31T12:40:40;22.70;92.10
34099;DHT22;20374;49.474;10.944;2023-07-31T12:43:07;22.60;91.70
34099;DHT22;20374;49.474;10.944;2023-07-31T12:45:33;22.70;92.10
34099;DHT22;20374;49.474;10.944;2023-07-31T12:48:00;22.70;92.30
34099;DHT22;20374;49.474;10.944;2023-07-31T12:50:26;22.70;92.50
34099;DHT22;20374;49.474;10.944;2023-07-31T12:52:56;22.80;92.60
34099;DHT22;20374;49.474;10.944;2023-07-31T12:55:23;23.00;92.90
34099;DHT22;20374;49.474;10.944;2023-07-31T12:57:50;23.00;91.20
34099;DHT22;20374;49.474;10.944;2023-07-31T13:00:16;22.80;91.10
34099;DHT22;20374;49.474;10.944;2023-07-31T13:02:42;22.70;92.00
34099;DHT22;20374;49.474;10.944;2023-07-31T13:05:08;22.70;91.40
34099;DHT22;20374;49.474;10.944;2023-07-31T13:07:34;22.70;91.40
34099;DHT22;20374;49.474;10.944;2023-07-31T13:10:00;22.70;91.90
34099;DHT22;20374;49.474;10.944;2023-07-31T13:12:26;23.00;91.30
34099;DHT22;20374;49.474;10.944;2023-07-31T13:14:52;23.50;91.00
34099;DHT22;20374;49.474;10.944;2023-07-31T13:17:18;24.00;90.60
34099;DHT22;20374;49.474;10.944;2023-07-31T13:19:44;24.30;90.80
34099;DHT22;20374;49.474;10.944;2023-07-31T13:22:10;24.30;89.30
34099;DHT22;20374;49.474;10.944;2023-07-31T13:24:36;24.30;89.60
34099;DHT22;20374;49.474;10.944;2023-07-31T13:27:02;24.70;90.30
34099;DHT22;20374;49.474;10.944;2023-07-31T13:29:28;25.30;87.30
34099;DHT22;20374;49.474;10.944;2023-07-31T13:31:55;25.40;87.90
34099;DHT22;20374;49.474;10.944;2023-07-31T13:34:21;25.80;85.20
34099;DHT22;20374;49.474;10.944;2023-07-31T13:36:47;25.60;84.30
34099;DHT22;20374;49.474;10.944;2023-07-31T13:39:13;25.10;85.60
34099;DHT22;20374;49.474;10.944;2023-07-31T13:41:39;24.90;86.50
34099;DHT22;20374;49.474;10.944;2023-07-31T13:44:05;24.70;85.70
34099;DHT22;20374;49.474;10.944;2023-07-31T13:46:30;24.60;85.40
34099;DHT22;20374;49.474;10.944;2023-07-31T13:48:59;24.70;86.20
34099;DHT22;20374;49.474;10.944;2023-07-31T13:51:25;25.30;89.30
34099;DHT22;20374;49.474;10.944;2023-07-31T13:53:53;25.50;85.50
34099;DHT22;20374;49.474;10.944;2023-07-31T13:56:19;25.50;83.20
34099;DHT22;20374;49.474;10.944;2023-07-31T13:58:44;25.50;83.40
34099;DHT22;20374;49.474;10.944;2023-07-31T14:01:10;25.40;83.20
34099;DHT22;20374;49.474;10.944;2023-07-31T14:03:36;24.80;82.80
34099;DHT22;20374;49.474;10.944;2023-07-31T14:06:02;24.60;86.80
34099;DHT22;20374;49.474;10.944;2023-07-31T14:08:28;24.50;85.90
34099;DHT22;20374;49.474;10.944;2023-07-31T14:10:55;24.50;84.40
34099;DHT22;20374;49.474;10.944;2023-07-31T14:13:21;24.20;85.40
34099;DHT22;20374;49.474;10.944;2023-07-31T14:15:48;24.10;84.60
34099;DHT22;20374;49.474;10.944;2023-07-31T14:18:16;24.00;86.50
34099;DHT22;20374;49.474;10.944;2023-07-31T14:20:42;24.10;86.40
34099;DHT22;20374;49.474;10.944;2023-07-31T14:23:07;24.40;86.30
34099;DHT22;20374;49.474;10.944;2023-07-31T14:25:33;24.60;86.40
34099;DHT22;20374;49.474;10.944;2023-07-31T14:27:59;24.40;84.60
34099;DHT22;20374;49.474;10.944;2023-07-31T14:30:25;24.10;86.00
34099;DHT22;20374;49.474;10.944;2023-07-31T14:32:51;23.90;87.40
34099;DHT22;20374;49.474;10.944;2023-07-31T14:35:17;23.70;86.60
34099;DHT22;20374;49.474;10.944;2023-07-31T14:37:44;23.70;89.10
34099;DHT22;20374;49.474;10.944;2023-07-31T14:40:12;23.60;87.90
34099;DHT22;20374;49.474;10.944;2023-07-31T14:42:38;23.60;88.30
34099;DHT22;20374;49.474;10.944;2023-07-31T14:45:05;23.50;89.40
34099;DHT22;20374;49.474;10.944;2023-07-31T14:47:31;23.40;88.10
34099;DHT22;20374;49.474;10.944;2023-07-31T14:49:58;23.40;88.70
34099;DHT22;20374;49.474;10.944;2023-07-31T14:52:24;23.30;90.00
34099;DHT22;20374;49.474;10.944;2023-07-31T14:54:50;23.10;89.60
34099;DHT22;20374;49.474;10.944;2023-07-31T14:57:16;23.00;90.10
34099;DHT22;20374;49.474;10.944;2023-07-31T14:59:42;23.00;90.00
34099;DHT22;20374;49.474;10.944;2023-07-31T15:02:10;22.90;90.50
34099;DHT22;20374;49.474;10.944;2023-07-31T15:04:36;22.80;91.00
34099;DHT22;20374;49.474;10.944;2023-07-31T15:07:03;22.70;90.80
34099;DHT22;20374;49.474;10.944;2023-07-31T15:09:29;22.70;90.90
34099;DHT22;20374;49.474;10.944;2023-07-31T15:11:55;22.60;91.40
34099;DHT22;20374;49.474;10.944;2023-07-31T15:14:22;22.60;91.40
34099;DHT22;20374;49.474;10.944;2023-07-31T15:16:48;22.60;91.70
34099;DHT22;20374;49.474;10.944;2023-07-31T15:19:15;22.60;91.20
34099;DHT22;20374;49.474;10.944;2023-07-31T15:21:41;22.60;91.70
34099;DHT22;20374;49.474;10.944;2023-07-31T15:24:10;22.60;91.40
34099;DHT22;20374;49.474;10.944;2023-07-31T15:26:37;22.70;91.60
34099;DHT22;20374;49.474;10.944;2023-07-31T15:29:04;22.60;91.30